Světová hvězda míří na Aviatickou pouť o víkendu 27. a 28. května 2023

12.05.23 Snahou organizátorů leteckých dnů je mít v programu vedle řady špičkových pilotů i nějakou hvězdu všeobecně známou širšímu okruhu veřejnosti. Ovšem mít mezi vystupujícími pilota, který je mediálně známý téměř po celém světě, se organizátorům poštěstí jen málokdy. Na letošním ročníku Aviatické pouti, který se uskuteční o víkendu 27. a 28. května 2023 na letišti v Pardubicích, tomu tak bude. Vedle několika předních hvězd svou účast potvrdil i Luke Czepiela. Celý článek

International flying school Flying Academy is hiring a new Certified Instructors!

25.04.23 Job Title: Flight Instructor | FI (A) Job Location: Prague, Czech Republic Celý článek

Zprávy

aktualizováno

28.05.23 Celý článek

Všechny zprávy    

Všechny články

Kurzy

Kalendář akcí

ICAO English Exam / Zkouška - každý pátek v měsíci
02.06.23 Online Worldwide Campus or Flying Academy Beranových 130 Praha
ICAO English Exam / Zkouška - každý pátek v měsíci
09.06.23 Online Worldwide Campus or Flying Academy Beranových 130 Praha
Austro Control Exam PPL / ATPL
12.06.23 Flying Academy Beranových 130 Praha
Austro Control Exam PPL / ATPL
13.06.23 Flying Academy Beranových 130 Praha
Austro Control Exam PPL / ATPL
14.06.23 Flying Academy Beranových 130 Praha

Všechny akce

Zeptejte se odborníka

Zkušený personál jedné z největších leteckých škol Flying Academy je připraven Vám pomoci s jakýmikoli otázkami týkajícími se letectví.

Zeptejte se

Newsletter

Přihlaste se k odběru novinek.

Aktuální počasí

LKKB
LKKB 281000Z 06005KT 020V140 CAVOK 19/06 Q1020 NOSIG

LKKV
LKKV 281000Z 02005KT 290V090 CAVOK 19/05 Q1020

LKMT
LKMT 281000Z 04007KT 360V070 CAVOK 19/07 Q1019 NOSIG

LKPR
LKPR 281000Z VRB03KT CAVOK 18/05 Q1020 NOSIG

LKTB
LKTB 281000Z 08009KT CAVOK 19/07 Q1019 NOSIG

Briefing

Kurzy měn

AUD AUD 14.43 Kč
EUR EUR 23.67 Kč
GBP GBP 27.22 Kč
HUF HUF 6.35 Kč
CHF CHF 24.33 Kč
USD USD 21.95 Kč